Time;durP1;ratioP1;P1;durP2;ratioP2;P2;SDS_P1;SDS_P2;PMS_P1;PMS_P2;Temp;Humidity;BMP_temperature;BMP_pressure;BME280_temperature;BME280_humidity;BME280_pressure;Samples;Min_cycle;Max_cycle;Signal;HPM_P1;HPM_P2
2023/07/26 00:01:00;;;;;;;;;;;;;;;;;;4983555;28;19930;-76
2023/07/26 00:03:33;;;;;;;;;;;;;;;;;;4981053;28;19940;-76
2023/07/26 00:06:01;;;;;;;;;;;;;;;;;;4999964;28;20064;-76
2023/07/26 00:08:29;;;;;;;;;;;;;;;;;;5014127;28;19925;-75
2023/07/26 00:11:02;;;;;;;;;;;;;;;;;;4979296;28;19926;-74
2023/07/26 00:13:29;;;;;;;;;;;;;;;;;;4979729;28;19930;-76
2023/07/26 00:15:57;;;;;;;;;;;;;;;;;;4990055;28;19930;-76
2023/07/26 00:18:25;;;;;;;;;;;;;;;;;;4983000;28;19930;-77
2023/07/26 00:20:52;;;;;;;;;;;;;;;;;;4984801;28;19933;-76
2023/07/26 00:23:20;;;;;;;;;;;;;;;;;;4984808;28;19926;-76
2023/07/26 00:25:52;;;;;;;;;;;;;;;;;;4982631;28;20001;-75
2023/07/26 00:28:20;;;;;;;;;;;;;;;;;;4985414;28;20457;-76
2023/07/26 00:30:52;;;;;;;;;;;;;;;;;;4988292;28;19933;-78
2023/07/26 00:33:20;;;;;;;;;;;;;;;;;;4984781;28;20585;-74
2023/07/26 00:35:47;;;;;;;;;;;;;;;;;;4983205;28;19937;-77
2023/07/26 00:38:20;;;;;;;;;;;;;;;;;;4983139;28;20669;-78
2023/07/26 00:40:47;;;;;;;;;;;;;;;;;;5016956;28;19936;-75
2023/07/26 00:43:15;;;;;;;;;;;;;;;;;;4984208;28;20345;-76
2023/07/26 00:45:42;;;;;;;;;;;;;;;;;;4996898;28;19926;-75
2023/07/26 00:48:15;;;;;;;;;;;;;;;;;;5016746;28;20485;-74
2023/07/26 00:50:42;;;;;;;;;;;;;;;;;;4983284;28;19953;-75
2023/07/26 00:53:10;;;;;;;;;;;;;;;;;;5012893;28;19930;-76
2023/07/26 00:55:43;;;;;;;;;;;;;;;;;;4999967;28;20607;-76
2023/07/26 00:58:12;;;;;;;;;;;;;;;;;;5013132;28;19936;-79
2023/07/26 01:00:44;;;;;;;;;;;;;;;;;;4989201;28;19929;-77
2023/07/26 01:03:12;;;;;;;;;;;;;;;;;;4998458;28;19941;-75
2023/07/26 01:05:39;;;;;;;;;;;;;;;;;;4996016;28;19949;-76
2023/07/26 01:08:12;;;;;;;;;;;;;;;;;;4987072;28;19933;-76
2023/07/26 01:10:44;;;;;;;;;;;;;;;;;;4997068;28;20397;-77
2023/07/26 01:13:17;;;;;;;;;;;;;;;;;;4981454;28;20827;-75
2023/07/26 01:15:44;;;;;;;;;;;;;;;;;;4985192;28;19926;-78
2023/07/26 01:18:17;;;;;;;;;;;;;;;;;;5005596;28;20298;-76
2023/07/26 01:20:49;;;;;;;;;;;;;;;;;;4982194;28;20387;-77
2023/07/26 01:23:17;;;;;;;;;;;;;;;;;;4975669;28;19932;-76
2023/07/26 01:25:49;;;;;;;;;;;;;;;;;;4987845;28;19930;-76
2023/07/26 01:28:17;;;;;;;;;;;;;;;;;;5012431;28;20659;-74
2023/07/26 01:30:50;;;;;;;;;;;;;;;;;;4999307;28;20306;-75
2023/07/26 01:33:20;;;;;;;;;;;;;;;;;;4977814;28;20275;-77
2023/07/26 01:35:48;;;;;;;;;;;;;;;;;;5006010;28;19937;-78
2023/07/26 01:38:15;;;;;;;;;;;;;;;;;;5003944;28;19941;-78
2023/07/26 01:40:43;;;;;;;;;;;;;;;;;;4983416;28;20464;-78
2023/07/26 01:43:16;;;;;;;;;;;;;;;;;;4981387;28;19930;-78
2023/07/26 01:45:49;;;;;;;;;;;;;;;;;;4979961;28;19930;-78
2023/07/26 01:48:22;;;;;;;;;;;;;;;;;;5004635;28;19925;-78
2023/07/26 01:50:49;;;;;;;;;;;;;;;;;;4996519;28;19937;-78
2023/07/26 01:53:22;;;;;;;;;;;;;;;;;;4984943;28;20302;-78
2023/07/26 01:55:49;;;;;;;;;;;;;;;;;;4979890;28;19932;-78
2023/07/26 01:58:22;;;;;;;;;;;;;;;;;;4987350;28;20379;-78
2023/07/26 02:00:54;;;;;;;;;;;;;;;;;;5011374;28;19926;-78
2023/07/26 02:03:22;;;;;;;;;;;;;;;;;;4982370;28;19930;-78
2023/07/26 02:05:50;;;;;;;;;;;;;;;;;;5010372;28;19926;-78
2023/07/26 02:08:22;;;;;;;;;;;;;;;;;;4978168;28;19926;-78
2023/07/26 02:10:50;;;;;;;;;;;;;;;;;;5012333;28;20400;-78
2023/07/26 02:13:17;;;;;;;;;;;;;;;;;;4996704;28;19926;-78
2023/07/26 02:15:50;;;;;;;;;;;;;;;;;;4977177;28;19926;-78
2023/07/26 02:18:18;;;;;;;;;;;;;;;;;;4977868;28;19930;-78
2023/07/26 02:20:50;;;;;;;;;;;;;;;;;;4985898;28;19933;-78
2023/07/26 02:23:23;;;;;;;;;;;;;;;;;;4977721;28;19953;-78
2023/07/26 02:25:56;;;;;;;;;;;;;;;;;;4997183;28;20383;-78
2023/07/26 02:28:24;;;;;;;;;;;;;;;;;;4982200;28;19937;-78
2023/07/26 02:30:52;;;;;;;;;;;;;;;;;;4995725;28;19926;-78
2023/07/26 02:33:19;;;;;;;;;;;;;;;;;;5002109;28;19946;-78
2023/07/26 02:35:52;;;;;;;;;;;;;;;;;;4979496;28;19930;-78
2023/07/26 02:38:24;;;;;;;;;;;;;;;;;;5012544;28;20386;-79
2023/07/26 02:40:52;;;;;;;;;;;;;;;;;;5011192;28;20283;-78
2023/07/26 02:43:25;;;;;;;;;;;;;;;;;;4977515;28;19930;-79
2023/07/26 02:45:52;;;;;;;;;;;;;;;;;;4994670;28;19930;-78
2023/07/26 02:48:25;;;;;;;;;;;;;;;;;;5004104;28;20292;-78
2023/07/26 02:50:57;;;;;;;;;;;;;;;;;;5012069;28;19933;-78
2023/07/26 02:53:25;;;;;;;;;;;;;;;;;;5011266;28;20616;-78
2023/07/26 02:55:52;;;;;;;;;;;;;;;;;;4980838;28;19999;-78
2023/07/26 02:58:25;;;;;;;;;;;;;;;;;;5001157;28;20255;-78
2023/07/26 03:00:58;;;;;;;;;;;;;;;;;;4982455;28;19941;-78
2023/07/26 03:03:25;;;;;;;;;;;;;;;;;;5010809;28;19931;-78
2023/07/26 03:05:58;;;;;;;;;;;;;;;;;;5012907;28;19934;-78
2023/07/26 03:08:26;;;;;;;;;;;;;;;;;;4995353;28;20393;-78
2023/07/26 03:10:58;;;;;;;;;;;;;;;;;;4980969;28;19934;-78
2023/07/26 03:13:26;;;;;;;;;;;;;;;;;;4976057;28;19937;-78
2023/07/26 03:15:53;;;;;;;;;;;;;;;;;;4978074;28;19938;-78
2023/07/26 03:18:26;;;;;;;;;;;;;;;;;;4980994;28;19926;-78
2023/07/26 03:20:58;;;;;;;;;;;;;;;;;;4981298;28;19941;-78
2023/07/26 03:23:31;;;;;;;;;;;;;;;;;;4979834;28;20641;-78
2023/07/26 03:26:03;;;;;;;;;;;;;;;;;;4996078;28;19931;-78
2023/07/26 03:28:36;;;;;;;;;;;;;;;;;;4986817;28;19929;-78
2023/07/26 03:31:04;;;;;;;;;;;;;;;;;;4979487;28;19941;-78
2023/07/26 03:33:31;;;;;;;;;;;;;;;;;;4981089;28;19930;-78
2023/07/26 03:35:59;;;;;;;;;;;;;;;;;;4996003;28;19937;-78
2023/07/26 03:38:31;;;;;;;;;;;;;;;;;;4980157;28;19940;-78
2023/07/26 03:40:59;;;;;;;;;;;;;;;;;;4993039;28;20012;-78
2023/07/26 03:43:28;;;;;;;;;;;;;;;;;;5003847;28;19930;-78
2023/07/26 03:45:56;;;;;;;;;;;;;;;;;;5013473;28;19929;-78
2023/07/26 03:48:28;;;;;;;;;;;;;;;;;;4986326;28;19926;-78
2023/07/26 03:51:01;;;;;;;;;;;;;;;;;;4986001;28;20306;-77
2023/07/26 03:53:28;;;;;;;;;;;;;;;;;;4995508;28;19926;-78
2023/07/26 03:55:56;;;;;;;;;;;;;;;;;;4989815;28;19930;-78
2023/07/26 03:58:23;;;;;;;;;;;;;;;;;;4981929;28;19930;-78
2023/07/26 04:00:51;;;;;;;;;;;;;;;;;;4998799;28;19926;-78
2023/07/26 04:03:19;;;;;;;;;;;;;;;;;;4998802;28;19941;-78
2023/07/26 04:05:46;;;;;;;;;;;;;;;;;;5015693;28;20403;-78
2023/07/26 04:08:19;;;;;;;;;;;;;;;;;;5016156;28;19933;-78
2023/07/26 04:10:51;;;;;;;;;;;;;;;;;;4981903;28;19930;-77
2023/07/26 04:13:19;;;;;;;;;;;;;;;;;;4984487;28;19930;-78
2023/07/26 04:15:46;;;;;;;;;;;;;;;;;;5015410;28;19953;-78
2023/07/26 04:18:14;;;;;;;;;;;;;;;;;;4999702;28;19926;-78
2023/07/26 04:20:42;;;;;;;;;;;;;;;;;;5004292;28;19926;-78
2023/07/26 04:23:09;;;;;;;;;;;;;;;;;;4997544;28;19930;-78
2023/07/26 04:25:37;;;;;;;;;;;;;;;;;;4998375;28;19930;-78
2023/07/26 04:28:04;;;;;;;;;;;;;;;;;;4983700;28;19937;-78
2023/07/26 04:30:37;;;;;;;;;;;;;;;;;;4987182;28;20366;-78
2023/07/26 04:33:04;;;;;;;;;;;;;;;;;;4983256;28;19929;-78
2023/07/26 04:35:32;;;;;;;;;;;;;;;;;;5013486;28;20298;-78
2023/07/26 04:37:59;;;;;;;;;;;;;;;;;;4982889;28;19926;-78
2023/07/26 04:40:27;;;;;;;;;;;;;;;;;;4982238;28;19933;-78
2023/07/26 04:42:54;;;;;;;;;;;;;;;;;;5014687;28;19929;-77
2023/07/26 04:45:27;;;;;;;;;;;;;;;;;;4981790;28;20286;-78
2023/07/26 04:47:59;;;;;;;;;;;;;;;;;;4987817;28;19926;-78
2023/07/26 04:50:27;;;;;;;;;;;;;;;;;;5004816;28;19941;-77
2023/07/26 04:52:59;;;;;;;;;;;;;;;;;;4985109;28;19930;-78
2023/07/26 04:55:32;;;;;;;;;;;;;;;;;;5013645;28;20546;-78
2023/07/26 04:58:04;;;;;;;;;;;;;;;;;;4983001;28;19929;-78
2023/07/26 05:00:32;;;;;;;;;;;;;;;;;;4996866;28;20294;-78
2023/07/26 05:02:59;;;;;;;;;;;;;;;;;;4981464;28;19934;-77
2023/07/26 05:05:27;;;;;;;;;;;;;;;;;;4978489;28;19933;-78
2023/07/26 05:07:54;;;;;;;;;;;;;;;;;;4980496;28;19926;-78
2023/07/26 05:10:23;;;;;;;;;;;;;;;;;;5015890;28;19953;-78
2023/07/26 05:12:55;;;;;;;;;;;;;;;;;;4982539;28;20388;-78
2023/07/26 05:15:23;;;;;;;;;;;;;;;;;;4998166;28;19937;-78
2023/07/26 05:17:56;;;;;;;;;;;;;;;;;;4981606;28;20381;-78
2023/07/26 05:20:23;;;;;;;;;;;;;;;;;;4985064;28;19933;-78
2023/07/26 05:22:56;;;;;;;;;;;;;;;;;;4981700;28;19929;-78
2023/07/26 05:25:23;;;;;;;;;;;;;;;;;;4998096;28;19929;-78
2023/07/26 05:27:56;;;;;;;;;;;;;;;;;;4983207;28;19937;-80
2023/07/26 05:30:28;;;;;;;;;;;;;;;;;;4984097;28;19926;-78
2023/07/26 05:32:56;;;;;;;;;;;;;;;;;;4979615;28;19937;-78
2023/07/26 05:35:23;;;;;;;;;;;;;;;;;;5013756;28;19926;-78
2023/07/26 05:37:53;;;;;;;;;;;;;;;;;;5016205;28;19956;-78
2023/07/26 05:40:26;;;;;;;;;;;;;;;;;;5014561;28;19937;-77
2023/07/26 05:42:58;;;;;;;;;;;;;;;;;;4987914;28;19941;-78
2023/07/26 05:45:26;;;;;;;;;;;;;;;;;;5014432;28;19930;-78
2023/07/26 05:47:53;;;;;;;;;;;;;;;;;;4982486;28;20295;-78
2023/07/26 05:50:21;;;;;;;;;;;;;;;;;;4983860;28;19930;-78
2023/07/26 05:52:53;;;;;;;;;;;;;;;;;;4982212;28;19937;-78
2023/07/26 05:55:26;;;;;;;;;;;;;;;;;;4979251;28;19929;-80
2023/07/26 05:57:58;;;;;;;;;;;;;;;;;;4984280;28;19966;-77
2023/07/26 06:00:26;;;;;;;;;;;;;;;;;;4982388;28;19930;-78
2023/07/26 06:02:58;;;;;;;;;;;;;;;;;;4980592;28;19930;-78
2023/07/26 06:05:31;;;;;;;;;;;;;;;;;;4978284;28;19952;-78
2023/07/26 06:08:04;;;;;;;;;;;;;;;;;;4981250;28;19937;-80
2023/07/26 06:10:32;;;;;;;;;;;;;;;;;;4983389;28;19934;-78
2023/07/26 06:12:59;;;;;;;;;;;;;;;;;;5013203;28;20317;-78
2023/07/26 06:15:27;;;;;;;;;;;;;;;;;;5010730;28;20390;-78
2023/07/26 06:18:00;;;;;;;;;;;;;;;;;;4982029;28;19930;-77
2023/07/26 06:20:27;;;;;;;;;;;;;;;;;;4984873;28;19934;-79
2023/07/26 06:23:00;;;;;;;;;;;;;;;;;;4997834;28;19945;-78
2023/07/26 06:25:27;;;;;;;;;;;;;;;;;;5011475;28;19933;-77
2023/07/26 06:27:55;;;;;;;;;;;;;;;;;;4996721;28;19930;-78
2023/07/26 06:30:28;;;;;;;;;;;;;;;;;;4980904;28;19945;-78
2023/07/26 06:32:56;;;;;;;;;;;;;;;;;;4997830;28;19934;-78
2023/07/26 06:35:29;;;;;;;;;;;;;;;;;;4983798;28;19930;-77
2023/07/26 06:37:56;;;;;;;;;;;;;;;;;;4998664;28;20044;-78
2023/07/26 06:40:24;;;;;;;;;;;;;;;;;;4984011;28;20305;-78
2023/07/26 06:42:51;;;;;;;;;;;;;;;;;;4981289;28;19938;-78
2023/07/26 06:45:19;;;;;;;;;;;;;;;;;;4979992;28;20397;-79
2023/07/26 06:47:46;;;;;;;;;;;;;;;;;;4978034;28;19938;-79
2023/07/26 06:50:14;;;;;;;;;;;;;;;;;;4997988;28;19934;-79
2023/07/26 06:52:41;;;;;;;;;;;;;;;;;;4983476;28;19933;-80
2023/07/26 06:55:14;;;;;;;;;;;;;;;;;;4981915;28;19934;-81
2023/07/26 06:57:42;;;;;;;;;;;;;;;;;;4978154;28;19934;-79
2023/07/26 07:00:15;;;;;;;;;;;;;;;;;;4979916;28;20325;-79
2023/07/26 07:02:48;;;;;;;;;;;;;;;;;;4961828;28;19941;-78
2023/07/26 07:05:15;;;;;;;;;;;;;;;;;;4975074;28;21429;-79
2023/07/26 07:07:43;;;;;;;;;;;;;;;;;;4958513;28;19934;-80
2023/07/26 07:10:16;;;;;;;;;;;;;;;;;;4962843;28;21320;-80
2023/07/26 07:12:43;;;;;;;;;;;;;;;;;;4959419;28;19934;-80
2023/07/26 07:15:16;;;;;;;;;;;;;;;;;;4960783;28;19934;-81
2023/07/26 07:17:43;;;;;;;;;;;;;;;;;;4968690;28;19934;-83
2023/07/26 07:20:11;;;;;;;;;;;;;;;;;;4965114;28;21401;-82
2023/07/26 07:22:39;;;;;;;;;;;;;;;;;;4967200;28;20422;-82
2023/07/26 07:25:11;;;;;;;;;;;;;;;;;;4967913;28;20904;-79
2023/07/26 07:27:39;;;;;;;;;;;;;;;;;;4962229;28;19950;-79
2023/07/26 07:30:13;;;;;;;;;;;;;;;;;;4969512;28;19934;-79
2023/07/26 07:32:40;;;;;;;;;;;;;;;;;;4983034;28;19933;-80
2023/07/26 07:35:13;;;;;;;;;;;;;;;;;;4966644;28;19941;-79
2023/07/26 07:37:40;;;;;;;;;;;;;;;;;;4969431;28;19945;-79
2023/07/26 07:40:13;;;;;;;;;;;;;;;;;;4994317;28;19948;-80
2023/07/26 07:42:45;;;;;;;;;;;;;;;;;;4961398;28;19940;-80
2023/07/26 07:45:13;;;;;;;;;;;;;;;;;;4993622;28;19934;-81
2023/07/26 07:47:46;;;;;;;;;;;;;;;;;;4967661;28;19933;-79
2023/07/26 07:50:13;;;;;;;;;;;;;;;;;;4969242;28;19949;-80
2023/07/26 07:52:41;;;;;;;;;;;;;;;;;;4967403;28;20443;-79
2023/07/26 07:55:14;;;;;;;;;;;;;;;;;;4961526;28;19934;-79
2023/07/26 07:57:46;;;;;;;;;;;;;;;;;;4959986;28;20009;-79
2023/07/26 08:00:14;;;;;;;;;;;;;;;;;;4971384;28;19948;-79
2023/07/26 08:02:41;;;;;;;;;;;;;;;;;;4967555;28;20781;-80
2023/07/26 08:05:09;;;;;;;;;;;;;;;;;;4968925;28;19926;-79
2023/07/26 08:07:42;;;;;;;;;;;;;;;;;;4957180;28;19941;-80
2023/07/26 08:10:11;;;;;;;;;;;;;;;;;;4959951;28;19933;-80
2023/07/26 08:12:40;;;;;;;;;;;;;;;;;;4961911;28;22319;-84
2023/07/26 08:15:08;;;;;;;;;;;;;;;;;;4981751;28;19934;-81
2023/07/26 08:17:40;;;;;;;;;;;;;;;;;;4962317;28;19934;-78
2023/07/26 08:20:08;;;;;;;;;;;;;;;;;;4970032;28;19934;-81
2023/07/26 08:22:36;;;;;;;;;;;;;;;;;;4962203;28;19937;-81
2023/07/26 08:25:08;;;;;;;;;;;;;;;;;;4961189;28;19941;-83
2023/07/26 08:27:36;;;;;;;;;;;;;;;;;;4960775;28;19980;-83
2023/07/26 08:30:04;;;;;;;;;;;;;;;;;;5001238;28;19934;-81
2023/07/26 08:32:31;;;;;;;;;;;;;;;;;;4967559;28;19934;-84
2023/07/26 08:34:59;;;;;;;;;;;;;;;;;;4962064;28;19933;-79
2023/07/26 08:37:26;;;;;;;;;;;;;;;;;;4992484;28;19933;-82
2023/07/26 08:39:59;;;;;;;;;;;;;;;;;;4963420;28;20558;-79
2023/07/26 08:42:28;;;;;;;;;;;;;;;;;;4959458;28;19934;-79
2023/07/26 08:44:55;;;;;;;;;;;;;;;;;;4958882;28;19940;-80
2023/07/26 08:47:23;;;;;;;;;;;;;;;;;;5000447;28;19933;-80
2023/07/26 08:49:56;;;;;;;;;;;;;;;;;;4969349;28;19930;-81
2023/07/26 08:52:23;;;;;;;;;;;;;;;;;;4968043;28;19933;-78
2023/07/26 08:54:56;;;;;;;;;;;;;;;;;;4963554;28;19934;-78
2023/07/26 08:57:24;;;;;;;;;;;;;;;;;;4961647;28;20401;-78
2023/07/26 08:59:51;;;;;;;;;;;;;;;;;;4970799;28;19929;-78
2023/07/26 09:02:19;;;;;;;;;;;;;;;;;;4965461;28;19933;-78
2023/07/26 09:04:47;;;;;;;;;;;;;;;;;;4966671;28;19933;-77
2023/07/26 09:07:14;;;;;;;;;;;;;;;;;;4960907;28;19941;-78
2023/07/26 09:09:42;;;;;;;;;;;;;;;;;;4968829;28;19941;-79
2023/07/26 09:12:14;;;;;;;;;;;;;;;;;;4966367;28;19933;-78
2023/07/26 09:14:43;;;;;;;;;;;;;;;;;;4965042;28;20828;-78
2023/07/26 09:17:11;;;;;;;;;;;;;;;;;;4998880;28;19941;-78
2023/07/26 09:19:39;;;;;;;;;;;;;;;;;;4969257;28;19940;-78
2023/07/26 09:22:07;;;;;;;;;;;;;;;;;;4970463;28;19929;-78
2023/07/26 09:24:40;;;;;;;;;;;;;;;;;;4963094;28;21115;-78
2023/07/26 09:27:08;;;;;;;;;;;;;;;;;;4960404;28;19933;-78
2023/07/26 09:29:37;;;;;;;;;;;;;;;;;;4965330;28;19934;-78
2023/07/26 09:32:09;;;;;;;;;;;;;;;;;;4962316;28;19945;-78
2023/07/26 09:34:45;;;;;;;;;;;;;;;;;;4964156;28;20409;-78
2023/07/26 09:37:18;;;;;;;;;;;;;;;;;;4966600;28;19940;-78
2023/07/26 09:39:45;;;;;;;;;;;;;;;;;;4966485;28;19934;-78
2023/07/26 09:42:18;;;;;;;;;;;;;;;;;;4967887;28;19944;-78
2023/07/26 09:44:51;;;;;;;;;;;;;;;;;;4963151;28;19934;-79
2023/07/26 09:47:23;;;;;;;;;;;;;;;;;;4959093;28;19941;-78
2023/07/26 09:49:51;;;;;;;;;;;;;;;;;;4962205;28;21297;-79
2023/07/26 09:52:18;;;;;;;;;;;;;;;;;;4971489;28;19929;-78
2023/07/26 09:54:46;;;;;;;;;;;;;;;;;;4961210;28;19934;-79
2023/07/26 09:57:14;;;;;;;;;;;;;;;;;;4960182;28;19965;-80
2023/07/26 09:59:46;;;;;;;;;;;;;;;;;;4965112;28;19934;-78
2023/07/26 10:02:17;;;;;;;;;;;;;;;;;;4967444;28;20028;-78
2023/07/26 10:04:45;;;;;;;;;;;;;;;;;;4967649;28;20812;-77
2023/07/26 10:07:12;;;;;;;;;;;;;;;;;;4952182;28;19940;-78
2023/07/26 10:09:48;;;;;;;;;;;;;;;;;;4956963;28;20578;-78
2023/07/26 10:12:23;;;;;;;;;;;;;;;;;;4960387;28;19934;-77
2023/07/26 10:14:55;;;;;;;;;;;;;;;;;;4956119;28;20915;-78
2023/07/26 10:17:23;;;;;;;;;;;;;;;;;;4993752;28;19934;-77
2023/07/26 10:19:50;;;;;;;;;;;;;;;;;;4966930;28;20035;-78
2023/07/26 10:22:23;;;;;;;;;;;;;;;;;;4957554;28;19934;-78
2023/07/26 10:24:51;;;;;;;;;;;;;;;;;;4961971;28;21039;-78
2023/07/26 10:27:24;;;;;;;;;;;;;;;;;;4958607;28;19941;-77
2023/07/26 10:29:51;;;;;;;;;;;;;;;;;;4962012;28;19945;-78
2023/07/26 10:32:24;;;;;;;;;;;;;;;;;;4961503;28;19934;-78
2023/07/26 10:34:57;;;;;;;;;;;;;;;;;;4959911;28;19934;-78
2023/07/26 10:37:29;;;;;;;;;;;;;;;;;;4961423;28;20500;-78
2023/07/26 10:40:02;;;;;;;;;;;;;;;;;;4958837;28;19934;-80
2023/07/26 10:42:29;;;;;;;;;;;;;;;;;;4963801;28;20594;-78
2023/07/26 10:44:57;;;;;;;;;;;;;;;;;;4967681;28;19934;-78
2023/07/26 10:47:30;;;;;;;;;;;;;;;;;;4959176;28;19933;-78
2023/07/26 10:49:57;;;;;;;;;;;;;;;;;;4958717;28;20835;-78
2023/07/26 10:52:30;;;;;;;;;;;;;;;;;;4961258;28;19941;-79
2023/07/26 10:54:58;;;;;;;;;;;;;;;;;;4992549;28;19933;-78
2023/07/26 10:57:25;;;;;;;;;;;;;;;;;;4993669;28;20583;-78
2023/07/26 10:59:58;;;;;;;;;;;;;;;;;;4971028;28;19929;-79
2023/07/26 11:02:30;;;;;;;;;;;;;;;;;;4966196;28;19930;-80
2023/07/26 11:04:58;;;;;;;;;;;;;;;;;;4968967;28;19941;-78
2023/07/26 11:07:26;;;;;;;;;;;;;;;;;;4964117;28;19941;-77
2023/07/26 11:09:53;;;;;;;;;;;;;;;;;;4957778;28;19933;-78
2023/07/26 11:12:21;;;;;;;;;;;;;;;;;;4963997;28;19933;-79
2023/07/26 11:14:49;;;;;;;;;;;;;;;;;;4965640;28;19934;-80
2023/07/26 11:17:17;;;;;;;;;;;;;;;;;;4968604;28;20521;-81
2023/07/26 11:19:44;;;;;;;;;;;;;;;;;;4968258;28;19940;-78
2023/07/26 11:22:12;;;;;;;;;;;;;;;;;;4969107;28;20390;-79
2023/07/26 11:24:46;;;;;;;;;;;;;;;;;;4972270;28;19938;-80
2023/07/26 11:27:18;;;;;;;;;;;;;;;;;;4963248;28;21706;-78
2023/07/26 11:29:46;;;;;;;;;;;;;;;;;;5006172;28;19940;-77
2023/07/26 11:32:13;;;;;;;;;;;;;;;;;;4985102;28;19941;-79
2023/07/26 11:34:41;;;;;;;;;;;;;;;;;;4964015;28;19941;-78
2023/07/26 11:37:08;;;;;;;;;;;;;;;;;;4968787;28;19934;-78
2023/07/26 11:39:36;;;;;;;;;;;;;;;;;;4983695;28;19940;-78
2023/07/26 11:42:08;;;;;;;;;;;;;;;;;;4969706;28;19930;-78
2023/07/26 11:44:41;;;;;;;;;;;;;;;;;;4970890;28;20720;-79
2023/07/26 11:47:14;;;;;;;;;;;;;;;;;;4967503;28;19945;-77
2023/07/26 11:49:41;;;;;;;;;;;;;;;;;;5007050;28;20572;-84
2023/07/26 11:52:09;;;;;;;;;;;;;;;;;;4962936;28;19941;-79
2023/07/26 11:54:37;;;;;;;;;;;;;;;;;;4994166;28;19933;-79
2023/07/26 11:57:05;;;;;;;;;;;;;;;;;;4966524;28;19934;-78
2023/07/26 11:59:32;;;;;;;;;;;;;;;;;;4967366;28;19934;-79
2023/07/26 12:02:00;;;;;;;;;;;;;;;;;;4966710;28;19933;-79
2023/07/26 12:04:29;;;;;;;;;;;;;;;;;;4967291;28;19976;-78
2023/07/26 12:07:01;;;;;;;;;;;;;;;;;;4970345;28;20302;-80
2023/07/26 12:09:29;;;;;;;;;;;;;;;;;;4972007;28;20378;-81
2023/07/26 12:11:57;;;;;;;;;;;;;;;;;;4960234;28;19941;-80
2023/07/26 12:14:31;;;;;;;;;;;;;;;;;;4962071;28;19934;-79
2023/07/26 12:16:59;;;;;;;;;;;;;;;;;;4965394;28;19932;-81
2023/07/26 12:19:27;;;;;;;;;;;;;;;;;;4970401;28;19933;-79
2023/07/26 12:21:54;;;;;;;;;;;;;;;;;;4963295;28;19929;-78
2023/07/26 12:24:27;;;;;;;;;;;;;;;;;;4967682;28;19934;-79
2023/07/26 12:26:55;;;;;;;;;;;;;;;;;;4958702;28;19934;-79
2023/07/26 12:29:27;;;;;;;;;;;;;;;;;;4958790;28;19934;-80
2023/07/26 12:32:00;;;;;;;;;;;;;;;;;;4956239;28;19953;-81
2023/07/26 12:34:28;;;;;;;;;;;;;;;;;;4987176;28;20980;-80
2023/07/26 12:36:56;;;;;;;;;;;;;;;;;;4959310;28;19934;-80
2023/07/26 12:39:24;;;;;;;;;;;;;;;;;;4989555;28;19933;-80
2023/07/26 12:41:51;;;;;;;;;;;;;;;;;;4961567;28;19941;-79
2023/07/26 12:44:19;;;;;;;;;;;;;;;;;;4954285;28;19934;-78
2023/07/26 12:46:51;;;;;;;;;;;;;;;;;;4957515;28;19934;-79
2023/07/26 12:49:19;;;;;;;;;;;;;;;;;;4989205;28;19934;-80
2023/07/26 12:51:51;;;;;;;;;;;;;;;;;;4957878;28;19934;-78
2023/07/26 12:54:24;;;;;;;;;;;;;;;;;;4961653;28;19930;-79
2023/07/26 12:56:51;;;;;;;;;;;;;;;;;;4960616;28;19934;-80
2023/07/26 12:59:19;;;;;;;;;;;;;;;;;;4956578;28;19934;-81
2023/07/26 13:01:52;;;;;;;;;;;;;;;;;;4967023;28;19934;-80
2023/07/26 13:04:20;;;;;;;;;;;;;;;;;;4957849;28;19934;-80
2023/07/26 13:06:47;;;;;;;;;;;;;;;;;;4960210;28;19933;-79
2023/07/26 13:09:15;;;;;;;;;;;;;;;;;;4957972;28;20426;-80
2023/07/26 13:11:43;;;;;;;;;;;;;;;;;;4960082;28;19934;-80
2023/07/26 13:14:11;;;;;;;;;;;;;;;;;;4961256;28;19933;-81
2023/07/26 13:16:38;;;;;;;;;;;;;;;;;;4959551;28;19965;-79
2023/07/26 13:19:06;;;;;;;;;;;;;;;;;;4938808;28;19941;-78
2023/07/26 13:21:39;;;;;;;;;;;;;;;;;;4964841;28;19941;-79
2023/07/26 13:24:06;;;;;;;;;;;;;;;;;;4993995;28;20309;-80
2023/07/26 13:26:34;;;;;;;;;;;;;;;;;;4963526;28;20412;-81
2023/07/26 13:29:02;;;;;;;;;;;;;;;;;;4961136;28;20633;-79
2023/07/26 13:31:30;;;;;;;;;;;;;;;;;;4993447;28;19930;-81
2023/07/26 13:33:57;;;;;;;;;;;;;;;;;;4962959;28;19934;-81
2023/07/26 13:36:25;;;;;;;;;;;;;;;;;;4966504;28;19941;-80
2023/07/26 13:38:57;;;;;;;;;;;;;;;;;;4967799;28;19933;-80
2023/07/26 13:41:25;;;;;;;;;;;;;;;;;;4970438;28;19956;-80
2023/07/26 13:43:58;;;;;;;;;;;;;;;;;;4960797;28;19934;-80
2023/07/26 13:46:30;;;;;;;;;;;;;;;;;;4958302;28;19934;-81
2023/07/26 13:49:03;;;;;;;;;;;;;;;;;;4961689;28;19941;-80
2023/07/26 13:51:30;;;;;;;;;;;;;;;;;;4968421;28;19941;-81
2023/07/26 13:54:03;;;;;;;;;;;;;;;;;;4959973;28;19936;-80
2023/07/26 13:56:31;;;;;;;;;;;;;;;;;;4980227;28;20571;-81
2023/07/26 13:58:59;;;;;;;;;;;;;;;;;;4963375;28;19926;-79
2023/07/26 14:01:32;;;;;;;;;;;;;;;;;;4968862;28;19945;-79
2023/07/26 14:04:04;;;;;;;;;;;;;;;;;;4966931;28;20651;-80
2023/07/26 14:06:32;;;;;;;;;;;;;;;;;;4964172;28;19926;-80
2023/07/26 14:09:00;;;;;;;;;;;;;;;;;;4994384;28;20738;-82
2023/07/26 14:11:27;;;;;;;;;;;;;;;;;;4990061;28;19934;-80
2023/07/26 14:13:56;;;;;;;;;;;;;;;;;;4960558;28;20773;-79
2023/07/26 14:16:24;;;;;;;;;;;;;;;;;;4967768;28;20334;-79
2023/07/26 14:18:56;;;;;;;;;;;;;;;;;;4963155;28;19933;-80
2023/07/26 14:21:25;;;;;;;;;;;;;;;;;;4966229;28;19934;-80
2023/07/26 14:23:52;;;;;;;;;;;;;;;;;;4965074;28;19941;-81
2023/07/26 14:26:20;;;;;;;;;;;;;;;;;;4999397;28;19929;-80
2023/07/26 14:28:52;;;;;;;;;;;;;;;;;;4940605;28;20366;-80
2023/07/26 14:31:20;;;;;;;;;;;;;;;;;;4970203;28;19941;-80
2023/07/26 14:33:47;;;;;;;;;;;;;;;;;;4964125;28;20152;-81
2023/07/26 14:36:20;;;;;;;;;;;;;;;;;;4962247;28;20811;-80
2023/07/26 14:38:52;;;;;;;;;;;;;;;;;;4968989;28;19929;-81
2023/07/26 14:41:25;;;;;;;;;;;;;;;;;;4960380;28;19936;-78
2023/07/26 14:43:57;;;;;;;;;;;;;;;;;;4967212;28;20662;-81
2023/07/26 14:46:25;;;;;;;;;;;;;;;;;;4986820;28;19934;-79
2023/07/26 14:48:53;;;;;;;;;;;;;;;;;;5003973;28;19925;-83
2023/07/26 14:51:20;;;;;;;;;;;;;;;;;;4957942;28;19934;-81
2023/07/26 14:53:48;;;;;;;;;;;;;;;;;;4961371;28;19934;-79
2023/07/26 14:56:15;;;;;;;;;;;;;;;;;;4988404;28;20687;-82
2023/07/26 14:58:48;;;;;;;;;;;;;;;;;;4961729;28;19934;-85
2023/07/26 15:01:21;;;;;;;;;;;;;;;;;;4954231;28;19933;-80
2023/07/26 15:03:48;;;;;;;;;;;;;;;;;;4991075;28;19941;-84
2023/07/26 15:06:21;;;;;;;;;;;;;;;;;;4990918;28;19946;-79
2023/07/26 15:08:48;;;;;;;;;;;;;;;;;;4964446;28;20318;-83
2023/07/26 15:11:16;;;;;;;;;;;;;;;;;;4954869;28;19934;-84
2023/07/26 15:13:43;;;;;;;;;;;;;;;;;;4959052;28;19926;-84
2023/07/26 15:16:11;;;;;;;;;;;;;;;;;;4963330;28;19934;-79
2023/07/26 15:18:38;;;;;;;;;;;;;;;;;;4953507;28;19941;-78
2023/07/26 15:21:11;;;;;;;;;;;;;;;;;;4952173;28;21118;-81
2023/07/26 15:23:38;;;;;;;;;;;;;;;;;;4960454;28;19934;-80
2023/07/26 15:26:06;;;;;;;;;;;;;;;;;;4957984;28;19949;-79
2023/07/26 15:28:35;;;;;;;;;;;;;;;;;;4928037;28;20018;-77
2023/07/26 15:31:07;;;;;;;;;;;;;;;;;;4951809;28;20812;-83
2023/07/26 15:33:40;;;;;;;;;;;;;;;;;;4956473;28;19938;-81
2023/07/26 15:36:07;;;;;;;;;;;;;;;;;;4986636;28;21486;-79
2023/07/26 15:38:35;;;;;;;;;;;;;;;;;;4963429;28;19929;-79
2023/07/26 15:41:03;;;;;;;;;;;;;;;;;;4956966;28;19953;-82
2023/07/26 15:43:30;;;;;;;;;;;;;;;;;;4954587;28;21158;-82
2023/07/26 15:45:58;;;;;;;;;;;;;;;;;;4964702;28;19934;-81
2023/07/26 15:48:25;;;;;;;;;;;;;;;;;;4967989;28;19934;-80
2023/07/26 15:50:53;;;;;;;;;;;;;;;;;;4958575;28;19941;-79
2023/07/26 15:53:21;;;;;;;;;;;;;;;;;;4963664;28;19962;-79
2023/07/26 15:55:49;;;;;;;;;;;;;;;;;;4995316;28;20846;-81
2023/07/26 15:58:23;;;;;;;;;;;;;;;;;;4959855;28;19940;-80
2023/07/26 16:00:50;;;;;;;;;;;;;;;;;;4958913;28;19934;-78
2023/07/26 16:03:18;;;;;;;;;;;;;;;;;;4957546;28;19940;-83
2023/07/26 16:05:51;;;;;;;;;;;;;;;;;;4964258;28;19933;-79
2023/07/26 16:08:18;;;;;;;;;;;;;;;;;;4960998;28;19933;-80
2023/07/26 16:10:46;;;;;;;;;;;;;;;;;;4961174;28;20704;-80
2023/07/26 16:13:14;;;;;;;;;;;;;;;;;;4958547;28;19934;-83
2023/07/26 16:15:42;;;;;;;;;;;;;;;;;;4961900;28;20136;-79
2023/07/26 16:18:15;;;;;;;;;;;;;;;;;;4995078;28;20511;-81
2023/07/26 16:20:43;;;;;;;;;;;;;;;;;;4965972;28;19933;-81
2023/07/26 16:23:10;;;;;;;;;;;;;;;;;;4989236;28;19941;-83
2023/07/26 16:25:38;;;;;;;;;;;;;;;;;;4956290;28;19934;-79
2023/07/26 16:28:11;;;;;;;;;;;;;;;;;;4960956;28;19934;-79
2023/07/26 16:30:38;;;;;;;;;;;;;;;;;;4962243;28;19941;-78
2023/07/26 16:33:11;;;;;;;;;;;;;;;;;;4960275;28;19967;-80
2023/07/26 16:35:38;;;;;;;;;;;;;;;;;;4962859;28;19933;-79
2023/07/26 16:38:08;;;;;;;;;;;;;;;;;;4955632;28;19941;-78
2023/07/26 16:40:41;;;;;;;;;;;;;;;;;;4961522;28;21039;-78
2023/07/26 16:43:13;;;;;;;;;;;;;;;;;;4957814;28;19945;-81
2023/07/26 16:45:46;;;;;;;;;;;;;;;;;;4961860;28;19933;-80
2023/07/26 16:48:18;;;;;;;;;;;;;;;;;;4962755;28;19934;-80
2023/07/26 16:50:51;;;;;;;;;;;;;;;;;;4962130;28;20858;-81
2023/07/26 16:53:23;;;;;;;;;;;;;;;;;;4957780;28;19934;-81
2023/07/26 16:55:51;;;;;;;;;;;;;;;;;;4989053;28;20317;-80
2023/07/26 16:58:19;;;;;;;;;;;;;;;;;;4954958;28;19934;-82
2023/07/26 17:00:46;;;;;;;;;;;;;;;;;;4952508;28;20552;-84